Time;durP1;ratioP1;P1;durP2;ratioP2;P2;SDS_P1;SDS_P2;PMS_P1;PMS_P2;Temp;Humidity;BMP_temperature;BMP_pressure;BME280_temperature;BME280_humidity;BME280_pressure;Samples;Min_cycle;Max_cycle;Signal;HPM_P1;HPM_P2
2024/01/20 00:01:52;;;;;;;27.65;11.43;;;1.10;99.90;;;;;;5093785;28;20024;-44
2024/01/20 00:04:18;;;;;;;21.80;10.18;;;1.10;99.90;;;;;;5094960;28;20078;-42
2024/01/20 00:06:44;;;;;;;37.13;10.75;;;1.10;99.90;;;;;;5094999;28;20419;-45
2024/01/20 00:09:10;;;;;;;29.33;10.40;;;1.00;99.90;;;;;;5094857;28;20480;-41
2024/01/20 00:11:37;;;;;;;25.73;10.10;;;1.00;99.90;;;;;;5094939;28;20404;-54
2024/01/20 00:14:03;;;;;;;21.70;10.40;;;1.00;99.90;;;;;;5094768;28;20031;-58
2024/01/20 00:16:28;;;;;;;24.33;9.77;;;1.00;99.90;;;;;;5094741;28;20385;-53
2024/01/20 00:18:54;;;;;;;22.08;10.15;;;0.90;99.90;;;;;;5094653;28;20362;-55
2024/01/20 00:21:20;;;;;;;27.52;11.23;;;0.90;99.90;;;;;;5093369;28;20016;-56
2024/01/20 00:23:45;;;;;;;23.23;9.70;;;0.90;99.90;;;;;;5092211;28;20029;-56
2024/01/20 00:26:11;;;;;;;31.48;9.93;;;0.90;99.90;;;;;;5093266;28;20020;-57
2024/01/20 00:28:37;;;;;;;28.20;10.05;;;0.90;99.90;;;;;;5094749;28;20020;-55
2024/01/20 00:31:02;;;;;;;28.00;9.65;;;0.90;99.90;;;;;;5094400;28;20108;-55
2024/01/20 00:33:29;;;;;;;25.35;9.30;;;0.90;99.90;;;;;;5093145;28;20032;-52
2024/01/20 00:35:55;;;;;;;27.00;10.57;;;0.90;99.90;;;;;;5094161;28;20028;-56
2024/01/20 00:38:21;;;;;;;24.90;10.13;;;0.80;99.90;;;;;;5094353;28;20465;-56
2024/01/20 00:40:47;;;;;;;27.90;10.65;;;0.80;99.90;;;;;;5094237;28;20100;-57
2024/01/20 00:43:12;;;;;;;22.95;9.45;;;0.80;99.90;;;;;;5094238;28;20476;-56
2024/01/20 00:45:38;;;;;;;17.42;8.98;;;0.70;99.90;;;;;;5094212;28;20016;-53
2024/01/20 00:48:04;;;;;;;24.17;9.90;;;0.80;99.90;;;;;;5094019;28;20074;-55
2024/01/20 00:50:29;;;;;;;20.63;9.30;;;0.70;99.90;;;;;;5094051;28;20137;-55
2024/01/20 00:52:55;;;;;;;20.83;8.75;;;0.70;99.90;;;;;;5094296;28;20035;-56
2024/01/20 00:55:21;;;;;;;19.73;9.57;;;0.70;99.90;;;;;;5093837;28;20529;-52
2024/01/20 00:57:46;;;;;;;25.90;10.02;;;0.80;99.90;;;;;;5093919;28;20588;-56
2024/01/20 01:00:12;;;;;;;27.80;9.52;;;0.80;99.90;;;;;;5093814;28;20095;-56
2024/01/20 01:02:39;;;;;;;25.35;10.65;;;0.70;99.90;;;;;;5093775;28;20016;-57
2024/01/20 01:05:06;;;;;;;20.90;9.50;;;0.70;99.90;;;;;;5093786;28;20476;-55
2024/01/20 01:07:33;;;;;;;33.53;12.10;;;0.60;99.90;;;;;;5093732;28;20032;-56
2024/01/20 01:09:58;;;;;;;27.00;10.88;;;0.60;99.90;;;;;;5092302;28;20024;-55
2024/01/20 01:12:24;;;;;;;32.85;11.15;;;0.50;99.90;;;;;;5093411;28;20408;-55
2024/01/20 01:14:50;;;;;;;27.30;10.02;;;0.50;99.90;;;;;;5093491;28;20031;-56
2024/01/20 01:17:19;;;;;;;26.20;9.65;;;0.50;99.90;;;;;;5093564;28;20024;-56
2024/01/20 01:19:45;;;;;;;27.08;10.23;;;0.50;99.90;;;;;;5093521;28;20020;-54
2024/01/20 01:22:11;;;;;;;26.35;11.10;;;0.40;99.90;;;;;;5093592;28;20095;-55
2024/01/20 01:24:37;;;;;;;30.00;10.60;;;0.40;99.90;;;;;;5093433;28;20027;-58
2024/01/20 01:27:04;;;;;;;30.20;9.75;;;0.40;99.90;;;;;;5092101;28;20027;-56
2024/01/20 01:29:29;;;;;;;33.78;10.93;;;0.40;99.90;;;;;;5093265;28;20054;-56
2024/01/20 01:31:55;;;;;;;25.13;10.05;;;0.40;99.90;;;;;;5093340;28;20103;-55
2024/01/20 01:34:21;;;;;;;27.80;11.88;;;0.40;99.90;;;;;;5093001;28;20387;-55
2024/01/20 01:36:46;;;;;;;31.92;12.00;;;0.40;99.90;;;;;;5093183;28;20480;-56
2024/01/20 01:39:12;;;;;;;26.52;10.57;;;0.40;99.90;;;;;;5093239;28;20469;-55
2024/01/20 01:41:38;;;;;;;26.13;10.00;;;0.40;99.90;;;;;;5093175;28;20020;-55
2024/01/20 01:44:03;;;;;;;28.27;11.02;;;0.40;99.90;;;;;;5093104;28;20148;-60
2024/01/20 01:46:29;;;;;;;34.28;10.82;;;0.40;99.90;;;;;;5093109;28;20024;-56
2024/01/20 01:48:56;;;;;;;32.30;11.35;;;0.30;99.90;;;;;;5093340;28;20389;-56
2024/01/20 01:51:22;;;;;;;30.52;10.32;;;0.30;99.90;;;;;;5093037;28;20024;-56
2024/01/20 01:53:49;;;;;;;26.00;10.88;;;0.30;99.90;;;;;;5093246;28;20387;-56
2024/01/20 01:56:15;;;;;;;33.13;11.68;;;0.20;99.90;;;;;;5092961;28;20031;-54
2024/01/20 01:58:46;;;;;;;32.05;11.50;;;0.20;99.90;;;;;;5092944;28;20097;-55
2024/01/20 02:01:12;;;;;;;30.40;11.35;;;0.20;99.90;;;;;;5092846;28;20020;-56
2024/01/20 02:03:38;;;;;;;30.67;11.93;;;0.20;99.90;;;;;;5092695;28;20043;-55
2024/01/20 02:06:05;;;;;;;31.42;12.27;;;0.20;99.90;;;;;;5092017;28;20035;-55
2024/01/20 02:08:31;;;;;;;34.83;12.10;;;0.20;99.90;;;;;;5092728;28;20488;-54
2024/01/20 02:10:57;;;;;;;30.98;11.68;;;0.10;99.90;;;;;;5091417;28;20024;-55
2024/01/20 02:13:23;;;;;;;36.70;11.35;;;0.10;99.90;;;;;;5092650;28;20052;-44
2024/01/20 02:15:49;;;;;;;32.40;10.88;;;0.20;99.90;;;;;;5092691;28;20023;-46
2024/01/20 02:18:15;;;;;;;38.75;12.77;;;0.20;99.90;;;;;;5092834;28;20016;-44
2024/01/20 02:20:41;;;;;;;36.65;11.75;;;0.20;99.90;;;;;;5091470;28;20017;-42
2024/01/20 02:23:06;;;;;;;35.50;12.43;;;0.20;99.90;;;;;;5092733;28;20024;-43
2024/01/20 02:25:32;;;;;;;28.38;11.20;;;0.20;99.90;;;;;;5092676;28;20020;-41
2024/01/20 02:27:58;;;;;;;38.10;10.77;;;0.10;99.90;;;;;;5092640;28;20028;-48
2024/01/20 02:30:24;;;;;;;27.65;10.77;;;0.10;99.90;;;;;;5091395;28;20035;-44
2024/01/20 02:32:49;;;;;;;28.38;11.88;;;0.10;99.90;;;;;;5092550;28;20028;-48
2024/01/20 02:35:18;;;;;;;29.02;10.52;;;0.10;99.90;;;;;;5092337;28;20028;-43
2024/01/20 02:37:44;;;;;;;25.63;9.73;;;0.10;99.90;;;;;;5092568;28;20468;-54
2024/01/20 02:40:10;;;;;;;33.78;11.70;;;0.10;99.90;;;;;;5092448;28;20027;-70
2024/01/20 02:42:36;;;;;;;34.25;11.60;;;0.10;99.90;;;;;;5091274;28;20066;-44
2024/01/20 02:45:02;;;;;;;36.08;11.70;;;0.00;99.90;;;;;;5092802;28;20016;-42
2024/01/20 02:47:28;;;;;;;27.80;10.13;;;0.00;99.90;;;;;;5094175;28;20494;-43
2024/01/20 02:49:53;;;;;;;44.28;13.00;;;0.00;99.90;;;;;;5096622;28;20020;-44
2024/01/20 02:52:19;;;;;;;31.63;11.43;;;0.00;99.90;;;;;;5096345;28;20803;-43
2024/01/20 02:55:03;;;;;;;36.15;10.88;;;0.00;99.90;;;;;;5096305;28;20358;-63
2024/01/20 02:57:30;;;;;;;36.05;11.02;;;0.00;99.90;;;;;;5096243;28;20467;-43
2024/01/20 02:59:55;;;;;;;32.63;11.40;;;0.00;99.90;;;;;;5096190;28;20016;-68
2024/01/20 03:02:21;;;;;;;31.30;11.45;;;0.00;99.90;;;;;;5096146;28;20020;-49
2024/01/20 03:04:47;;;;;;;44.38;13.73;;;0.00;99.90;;;;;;5096093;28;20058;-44
2024/01/20 03:07:14;;;;;;;29.23;10.45;;;0.00;99.90;;;;;;5096097;28;20436;-46
2024/01/20 03:09:39;;;;;;;33.55;11.70;;;-0.10;99.90;;;;;;5096277;28;20471;-45
2024/01/20 03:12:05;;;;;;;32.67;11.68;;;0.00;99.90;;;;;;5095672;28;20052;-47
2024/01/20 03:14:31;;;;;;;37.22;11.48;;;0.00;99.90;;;;;;5095927;28;20476;-47
2024/01/20 03:16:57;;;;;;;29.85;11.05;;;0.10;99.90;;;;;;5094612;28;20039;-42
2024/01/20 03:19:22;;;;;;;29.55;10.25;;;0.10;99.90;;;;;;5095862;28;20028;-56
2024/01/20 03:21:49;;;;;;;27.88;11.23;;;0.10;99.90;;;;;;5096094;28;20031;-54
2024/01/20 03:24:18;;;;;;;46.88;11.18;;;0.10;99.90;;;;;;5096027;28;20117;-54
2024/01/20 03:26:45;;;;;;;29.58;10.82;;;0.20;99.90;;;;;;5095994;28;20484;-55
2024/01/20 03:29:11;;;;;;;28.38;10.77;;;0.20;99.90;;;;;;5095549;28;20020;-55
2024/01/20 03:31:37;;;;;;;27.02;10.60;;;0.10;99.90;;;;;;5095660;28;20093;-49
2024/01/20 03:34:22;;;;;;;31.70;11.18;;;0.10;99.90;;;;;;5095560;28;20551;-55
2024/01/20 03:36:48;;;;;;;38.10;11.43;;;0.10;99.90;;;;;;5095494;28;20090;-52
2024/01/20 03:39:14;;;;;;;29.30;11.02;;;0.10;99.90;;;;;;5095788;28;20024;-53
2024/01/20 03:41:39;;;;;;;31.25;10.73;;;0.10;99.90;;;;;;5095798;28;20028;-44
2024/01/20 03:44:05;;;;;;;34.15;10.63;;;0.00;99.90;;;;;;5095404;28;20028;-50
2024/01/20 03:46:30;;;;;;;28.75;10.52;;;0.00;99.90;;;;;;5095376;28;20391;-43
2024/01/20 03:48:56;;;;;;;32.85;10.68;;;0.00;99.90;;;;;;5095529;28;20020;-49
2024/01/20 03:51:26;;;;;;;27.42;10.68;;;0.00;99.90;;;;;;5095534;28;20082;-48
2024/01/20 03:53:52;;;;;;;39.47;11.23;;;0.00;99.90;;;;;;5095124;28;20052;-48
2024/01/20 03:56:18;;;;;;;30.80;10.40;;;0.00;99.90;;;;;;5095443;28;20028;-52
2024/01/20 03:58:43;;;;;;;34.50;11.15;;;0.00;99.90;;;;;;5093637;28;20031;-55
2024/01/20 04:01:09;;;;;;;32.60;11.82;;;0.00;99.90;;;;;;5095038;28;20085;-52
2024/01/20 04:03:35;;;;;;;26.98;10.10;;;0.00;99.90;;;;;;5094982;28;20021;-54
2024/01/20 04:06:03;;;;;;;29.05;10.73;;;0.00;99.90;;;;;;5094950;28;20017;-54
2024/01/20 04:08:29;;;;;;;28.95;10.38;;;0.00;99.90;;;;;;5094933;28;20020;-53
2024/01/20 04:10:54;;;;;;;30.88;9.98;;;0.00;99.90;;;;;;5094843;28;20432;-43
2024/01/20 04:13:20;;;;;;;24.48;8.95;;;0.00;99.90;;;;;;5094703;28;20052;-44
2024/01/20 04:15:46;;;;;;;29.17;10.10;;;0.00;99.90;;;;;;5094750;28;20388;-50
2024/01/20 04:18:12;;;;;;;30.70;9.73;;;0.00;99.90;;;;;;5094760;28;20480;-44
2024/01/20 04:20:37;;;;;;;34.00;9.23;;;0.00;99.90;;;;;;5094919;28;20032;-44
2024/01/20 04:23:03;;;;;;;31.15;9.70;;;0.00;99.90;;;;;;5094825;28;20028;-46
2024/01/20 04:25:29;;;;;;;43.22;12.95;;;0.00;99.90;;;;;;5094552;28;20032;-46
2024/01/20 04:27:55;;;;;;;30.35;9.18;;;0.00;99.90;;;;;;5093588;28;20039;-44
2024/01/20 04:30:20;;;;;;;22.80;9.27;;;0.00;99.90;;;;;;5094384;28;20430;-46
2024/01/20 04:32:46;;;;;;;27.40;9.70;;;0.00;99.90;;;;;;5094484;28;20173;-44
2024/01/20 04:35:11;;;;;;;24.52;9.75;;;0.00;99.90;;;;;;5094322;28;20384;-60
2024/01/20 04:37:38;;;;;;;26.98;11.02;;;0.00;99.90;;;;;;5094329;28;20099;-50
2024/01/20 04:40:04;;;;;;;34.97;9.95;;;0.00;99.90;;;;;;5094523;28;20020;-51
2024/01/20 04:42:30;;;;;;;31.45;9.27;;;0.00;99.90;;;;;;5094323;28;20397;-44
2024/01/20 04:44:56;;;;;;;25.45;9.15;;;0.00;99.90;;;;;;5094487;28;20332;-50
2024/01/20 04:47:21;;;;;;;28.35;8.50;;;0.00;99.90;;;;;;5094188;28;20496;-71
2024/01/20 04:49:53;;;;;;;29.73;9.10;;;0.00;99.90;;;;;;5094030;28;20035;-52
2024/01/20 04:52:20;;;;;;;26.75;8.60;;;0.00;99.90;;;;;;5094387;28;20088;-46
2024/01/20 04:54:45;;;;;;;33.08;11.70;;;0.00;99.90;;;;;;5093859;28;20024;-44
2024/01/20 04:57:11;;;;;;;28.17;9.15;;;0.00;99.90;;;;;;5092782;28;20021;-46
2024/01/20 04:59:37;;;;;;;26.73;9.27;;;0.00;99.90;;;;;;5093890;28;20396;-49
2024/01/20 05:02:02;;;;;;;30.70;10.05;;;0.00;99.90;;;;;;5094181;28;20384;-44
2024/01/20 05:04:28;;;;;;;29.17;9.02;;;0.00;99.90;;;;;;5093863;28;20035;-44
2024/01/20 05:06:54;;;;;;;25.63;9.15;;;0.00;99.90;;;;;;5093782;28;20439;-47
2024/01/20 05:09:19;;;;;;;32.58;8.38;;;0.00;99.90;;;;;;5093256;28;20031;-44
2024/01/20 05:11:45;;;;;;;28.77;9.82;;;0.00;99.90;;;;;;5093297;28;20101;-46
2024/01/20 05:14:11;;;;;;;22.63;7.88;;;0.00;99.90;;;;;;5093607;28;20085;-53
2024/01/20 05:16:36;;;;;;;28.52;9.00;;;0.00;99.90;;;;;;5093651;28;20027;-53
2024/01/20 05:19:02;;;;;;;27.05;9.38;;;0.00;99.90;;;;;;5093557;28;20069;-65
2024/01/20 05:21:27;;;;;;;29.02;9.32;;;0.00;99.90;;;;;;5093527;28;20028;-51
2024/01/20 05:23:53;;;;;;;29.88;10.10;;;0.00;99.90;;;;;;5093752;28;20100;-53
2024/01/20 05:26:19;;;;;;;27.45;10.35;;;0.00;99.90;;;;;;5093913;28;20016;-53
2024/01/20 05:28:44;;;;;;;29.98;9.38;;;0.00;99.90;;;;;;5093296;28;20024;-52
2024/01/20 05:31:10;;;;;;;35.97;9.95;;;0.00;99.90;;;;;;5093375;28;20039;-52
2024/01/20 05:33:36;;;;;;;22.30;9.77;;;0.00;99.90;;;;;;5093296;28;20070;-43
2024/01/20 05:36:02;;;;;;;29.25;9.55;;;0.00;99.90;;;;;;5093225;28;20472;-46
2024/01/20 05:38:28;;;;;;;28.38;9.80;;;0.00;99.90;;;;;;5093216;28;20392;-46
2024/01/20 05:40:53;;;;;;;29.77;9.02;;;0.00;99.90;;;;;;5093172;28;20480;-44
2024/01/20 05:43:19;;;;;;;28.27;10.63;;;0.00;99.90;;;;;;5093183;28;20461;-44
2024/01/20 05:45:45;;;;;;;26.75;8.35;;;0.10;99.90;;;;;;5091844;28;20369;-47
2024/01/20 05:48:10;;;;;;;28.23;9.57;;;0.00;99.90;;;;;;5093125;28;20496;-54
2024/01/20 05:50:36;;;;;;;27.08;9.48;;;0.00;99.90;;;;;;5093064;28;20436;-50
2024/01/20 05:53:02;;;;;;;35.20;10.65;;;0.00;99.90;;;;;;5093055;28;20028;-49
2024/01/20 05:55:27;;;;;;;36.08;10.45;;;-0.10;99.90;;;;;;5092959;28;20055;-52
2024/01/20 05:57:53;;;;;;;32.83;10.25;;;-0.20;99.90;;;;;;5092977;28;20020;-53
2024/01/20 06:00:21;;;;;;;31.60;9.80;;;-0.10;99.90;;;;;;5092902;28;20518;-65
2024/01/20 06:02:47;;;;;;;32.10;11.07;;;-0.10;99.90;;;;;;5093014;28;20079;-52
2024/01/20 06:05:12;;;;;;;31.55;10.63;;;-0.10;99.90;;;;;;5092933;28;20024;-54
2024/01/20 06:07:38;;;;;;;24.48;9.10;;;-0.20;99.90;;;;;;5092828;28;20031;-52
2024/01/20 06:10:04;;;;;;;29.05;9.80;;;-0.10;99.90;;;;;;5092798;28;20028;-57
2024/01/20 06:12:30;;;;;;;30.88;9.63;;;-0.20;99.90;;;;;;5092715;28;20127;-53
2024/01/20 06:14:55;;;;;;;25.88;9.95;;;-0.10;99.90;;;;;;5093019;28;20396;-56
2024/01/20 06:17:21;;;;;;;29.75;9.70;;;-0.10;99.90;;;;;;5092791;28;20027;-48
2024/01/20 06:19:47;;;;;;;25.27;9.80;;;-0.10;99.90;;;;;;5092945;28;20131;-52
2024/01/20 06:22:13;;;;;;;29.25;10.32;;;-0.10;99.90;;;;;;5094060;28;20476;-54
2024/01/20 06:24:38;;;;;;;23.27;8.40;;;-0.10;99.90;;;;;;5096858;28;20032;-49
2024/01/20 06:27:04;;;;;;;28.67;9.73;;;-0.20;99.90;;;;;;5096883;28;20109;-49
2024/01/20 06:29:30;;;;;;;30.95;9.18;;;-0.20;99.90;;;;;;5096741;28;20051;-53
2024/01/20 06:31:55;;;;;;;35.97;10.27;;;-0.20;99.90;;;;;;5096781;28;20063;-50
2024/01/20 06:34:21;;;;;;;35.20;9.93;;;-0.20;99.90;;;;;;5096682;28;20032;-49
2024/01/20 06:36:47;;;;;;;30.85;9.43;;;-0.20;99.90;;;;;;5096662;28;20024;-42
2024/01/20 06:39:12;;;;;;;25.92;8.93;;;-0.10;99.90;;;;;;5096647;28;20024;-44
2024/01/20 06:41:38;;;;;;;28.42;8.82;;;-0.10;99.90;;;;;;5096854;28;20027;-46
2024/01/20 06:44:04;;;;;;;45.58;10.32;;;-0.10;99.90;;;;;;5096536;28;20056;-44
2024/01/20 06:46:29;;;;;;;27.35;9.30;;;-0.10;99.90;;;;;;5096452;28;20027;-44
2024/01/20 06:48:55;;;;;;;25.23;10.07;;;-0.10;99.90;;;;;;5096393;28;20024;-46
2024/01/20 06:51:25;;;;;;;35.83;10.95;;;-0.10;99.90;;;;;;5096300;28;20031;-41
2024/01/20 06:53:57;;;;;;;26.27;9.15;;;-0.10;99.90;;;;;;5096489;28;20427;-42
2024/01/20 06:56:25;;;;;;;27.15;8.63;;;-0.10;99.90;;;;;;5095044;28;20031;-39
2024/01/20 06:58:55;;;;;;;28.30;9.20;;;-0.10;99.90;;;;;;5096257;28;20021;-45
2024/01/20 07:01:22;;;;;;;23.85;9.30;;;0.00;99.90;;;;;;5096200;28;20480;-46
2024/01/20 07:03:48;;;;;;;30.02;9.73;;;0.00;99.90;;;;;;5096383;28;20499;-44
2024/01/20 07:06:14;;;;;;;28.75;8.65;;;-0.10;99.90;;;;;;5096085;28;20093;-42
2024/01/20 07:08:40;;;;;;;36.80;8.98;;;0.00;99.90;;;;;;5096053;28;20027;-45
2024/01/20 07:11:09;;;;;;;36.20;8.75;;;0.00;99.90;;;;;;5096096;28;20047;-45
2024/01/20 07:13:36;;;;;;;32.80;9.40;;;0.00;99.90;;;;;;5095736;28;20434;-43
2024/01/20 07:16:12;;;;;;;32.75;9.25;;;0.00;99.90;;;;;;5096130;28;20156;-44
2024/01/20 07:18:39;;;;;;;24.98;8.48;;;-0.10;99.90;;;;;;5096192;28;20480;-43
2024/01/20 07:21:05;;;;;;;23.05;8.40;;;-0.10;99.90;;;;;;5095803;28;20024;-46
2024/01/20 07:23:31;;;;;;;32.10;9.07;;;-0.10;99.90;;;;;;5095715;28;20383;-44
2024/01/20 07:25:58;;;;;;;32.90;10.40;;;0.00;99.90;;;;;;5095681;28;20511;-41
2024/01/20 07:28:24;;;;;;;31.08;9.32;;;0.00;99.90;;;;;;5095720;28;20103;-45
2024/01/20 07:30:50;;;;;;;24.20;9.85;;;0.00;99.90;;;;;;5095563;28;20145;-42
2024/01/20 07:33:16;;;;;;;27.83;9.27;;;0.00;99.90;;;;;;5095048;28;20455;-42
2024/01/20 07:35:41;;;;;;;28.25;9.85;;;0.00;99.90;;;;;;5095747;28;20024;-42
2024/01/20 07:38:07;;;;;;;29.75;8.93;;;0.00;99.90;;;;;;5095473;28;20032;-49
2024/01/20 07:40:33;;;;;;;28.27;9.30;;;0.00;99.90;;;;;;5095400;28;20016;-42
2024/01/20 07:42:59;;;;;;;30.00;9.88;;;-0.10;99.90;;;;;;5095400;28;20447;-60
2024/01/20 07:45:27;;;;;;;29.35;9.95;;;0.00;99.90;;;;;;5095347;28;20024;-46
2024/01/20 07:47:52;;;;;;;28.70;9.48;;;0.00;99.90;;;;;;5095314;28;20476;-41
2024/01/20 07:50:18;;;;;;;38.78;11.15;;;0.00;99.90;;;;;;5095200;28;20077;-52
2024/01/20 07:52:44;;;;;;;38.20;11.35;;;0.00;99.90;;;;;;5095517;28;20020;-53
2024/01/20 07:55:09;;;;;;;39.47;10.63;;;0.00;99.90;;;;;;5095078;28;20030;-49
2024/01/20 07:57:35;;;;;;;26.13;10.32;;;0.00;99.90;;;;;;5095163;28;20020;-52
2024/01/20 08:00:01;;;;;;;28.63;8.77;;;0.00;99.90;;;;;;5095170;28;20020;-54
2024/01/20 08:02:27;;;;;;;37.42;11.07;;;0.10;99.90;;;;;;5094891;28;20053;-50
2024/01/20 08:04:53;;;;;;;33.72;10.27;;;0.20;99.90;;;;;;5093680;28;20097;-51
2024/01/20 08:07:18;;;;;;;34.20;11.13;;;0.20;99.90;;;;;;5093697;28;20114;-52
2024/01/20 08:09:45;;;;;;;30.42;10.63;;;0.30;99.90;;;;;;5095168;28;20024;-51
2024/01/20 08:12:10;;;;;;;33.65;10.98;;;0.20;99.90;;;;;;5093530;28;20040;-52
2024/01/20 08:14:36;;;;;;;31.42;9.60;;;0.30;99.90;;;;;;5095059;28;20069;-51
2024/01/20 08:17:02;;;;;;;36.03;10.18;;;0.30;99.90;;;;;;5094771;28;20020;-53
2024/01/20 08:19:27;;;;;;;34.95;11.05;;;0.40;99.90;;;;;;5094969;28;20029;-49
2024/01/20 08:21:53;;;;;;;23.63;9.15;;;0.40;99.90;;;;;;5094760;28;20537;-54
2024/01/20 08:24:19;;;;;;;30.92;12.32;;;0.40;99.90;;;;;;5094633;28;20160;-49
2024/01/20 08:26:45;;;;;;;31.15;11.30;;;0.50;99.90;;;;;;5094655;28;20032;-53
2024/01/20 08:29:11;;;;;;;35.80;10.90;;;0.50;99.90;;;;;;5094407;28;20425;-54
2024/01/20 08:31:37;;;;;;;33.95;11.77;;;0.60;99.90;;;;;;5094443;28;20105;-51
2024/01/20 08:34:02;;;;;;;33.13;11.05;;;0.60;99.90;;;;;;5094381;28;20484;-51
2024/01/20 08:36:28;;;;;;;27.65;9.98;;;0.50;99.90;;;;;;5094327;28;20020;-52
2024/01/20 08:38:54;;;;;;;32.40;12.43;;;0.50;99.90;;;;;;5094317;28;20031;-51
2024/01/20 08:41:19;;;;;;;31.75;11.27;;;0.50;99.90;;;;;;5094236;28;20052;-52
2024/01/20 08:43:47;;;;;;;34.05;12.00;;;0.50;99.90;;;;;;5094053;28;20106;-75
2024/01/20 08:46:13;;;;;;;39.97;11.98;;;0.50;99.90;;;;;;5092726;28;20024;-57
2024/01/20 08:48:39;;;;;;;30.65;10.45;;;0.50;99.90;;;;;;5105214;28;20383;-51
2024/01/20 08:51:05;;;;;;;37.45;10.43;;;0.50;99.90;;;;;;5094588;28;20028;-51
2024/01/20 08:53:32;;;;;;;35.35;11.32;;;0.50;99.90;;;;;;5105849;28;20027;-52
2024/01/20 08:55:58;;;;;;;28.33;8.77;;;0.50;99.90;;;;;;5114352;27;20407;-51
2024/01/20 08:58:24;;;;;;;46.33;11.52;;;0.60;99.90;;;;;;5114328;28;20099;-53
2024/01/20 09:00:50;;;;;;;34.10;11.38;;;0.60;99.90;;;;;;5114247;28;20417;-58
2024/01/20 09:03:16;;;;;;;36.35;13.00;;;0.70;99.90;;;;;;5114175;28;20095;-55
2024/01/20 09:05:42;;;;;;;37.20;10.75;;;0.70;99.90;;;;;;5100792;28;20052;-53
2024/01/20 09:08:09;;;;;;;34.95;11.43;;;0.80;99.90;;;;;;5094276;28;20527;-52
2024/01/20 09:10:36;;;;;;;31.38;11.80;;;0.90;99.90;;;;;;5093628;28;20024;-52
2024/01/20 09:13:07;;;;;;;27.77;10.05;;;0.90;99.90;;;;;;5093515;28;20508;-53
2024/01/20 09:15:33;;;;;;;25.60;10.88;;;1.00;99.90;;;;;;5093533;28;20020;-49
2024/01/20 09:17:58;;;;;;;26.63;10.50;;;1.00;99.90;;;;;;5093522;28;20016;-52
2024/01/20 09:20:24;;;;;;;32.20;10.70;;;1.10;99.90;;;;;;5093536;28;20028;-51
2024/01/20 09:22:50;;;;;;;28.48;10.52;;;1.20;99.90;;;;;;5092459;28;20016;-54
2024/01/20 09:25:16;;;;;;;27.13;9.90;;;1.20;99.90;;;;;;5093921;28;20019;-51
2024/01/20 09:27:42;;;;;;;31.48;11.15;;;1.30;99.90;;;;;;5093331;28;20027;-50
2024/01/20 09:30:09;;;;;;;30.15;10.55;;;1.30;99.90;;;;;;5093399;28;20016;-48
2024/01/20 09:32:35;;;;;;;39.15;12.07;;;1.30;99.90;;;;;;5093461;28;20498;-52
2024/01/20 09:35:02;;;;;;;32.10;12.13;;;1.40;99.90;;;;;;5093473;28;20048;-52
2024/01/20 09:37:29;;;;;;;25.73;8.82;;;1.40;99.90;;;;;;5093203;28;20048;-50
2024/01/20 09:39:55;;;;;;;29.77;11.07;;;1.40;99.90;;;;;;5093167;28;20484;-53
2024/01/20 09:42:21;;;;;;;26.08;10.73;;;1.50;99.90;;;;;;5096482;28;20023;-52
2024/01/20 09:44:47;;;;;;;24.30;9.63;;;1.50;99.90;;;;;;5113452;28;20019;-66
2024/01/20 09:47:13;;;;;;;28.58;10.77;;;1.50;99.90;;;;;;5113292;28;20033;-53
2024/01/20 09:49:39;;;;;;;24.67;9.95;;;1.50;99.90;;;;;;5113266;28;20467;-50
2024/01/20 09:52:12;;;;;;;24.60;8.57;;;1.50;99.90;;;;;;5113718;28;20019;-61
2024/01/20 09:54:52;;;;;;;24.27;10.27;;;1.60;99.90;;;;;;5113369;28;20391;-59
2024/01/20 09:57:19;;;;;;;29.85;12.38;;;1.70;99.90;;;;;;5113137;28;20508;-49
2024/01/20 09:59:45;;;;;;;30.45;10.73;;;1.80;99.90;;;;;;5112445;28;20069;-53
2024/01/20 10:02:11;;;;;;;33.00;10.45;;;2.00;99.90;;;;;;5113295;28;20027;-54
2024/01/20 10:04:41;;;;;;;31.02;11.48;;;2.10;99.90;;;;;;5113499;28;20413;-55
2024/01/20 10:07:06;;;;;;;31.92;10.95;;;2.30;99.90;;;;;;5112133;28;20034;-53
2024/01/20 10:09:32;;;;;;;28.70;10.77;;;2.30;99.90;;;;;;5113243;28;20024;-49
2024/01/20 10:11:59;;;;;;;27.05;9.75;;;2.40;99.90;;;;;;5113022;28;20030;-47
2024/01/20 10:14:25;;;;;;;25.77;10.00;;;2.50;99.90;;;;;;5113200;28;20027;-54
2024/01/20 10:16:50;;;;;;;27.20;10.45;;;2.50;99.90;;;;;;5112357;28;20042;-54
2024/01/20 10:19:16;;;;;;;30.35;10.05;;;2.60;99.90;;;;;;5113131;28;20047;-48
2024/01/20 10:21:42;;;;;;;29.05;10.35;;;2.60;99.90;;;;;;5113159;28;20056;-44
2024/01/20 10:24:08;;;;;;;30.85;9.38;;;2.60;99.90;;;;;;5113408;28;20023;-47
2024/01/20 10:26:41;;;;;;;28.58;10.23;;;2.60;99.90;;;;;;5113062;28;20426;-52
2024/01/20 10:29:08;;;;;;;26.35;9.57;;;2.60;99.90;;;;;;5108637;28;20024;-53
2024/01/20 10:31:33;;;;;;;31.70;10.95;;;2.50;99.90;;;;;;5092951;28;20468;-53
2024/01/20 10:33:59;;;;;;;23.08;10.30;;;2.50;99.90;;;;;;5093330;28;20146;-56
2024/01/20 10:36:27;;;;;;;23.45;8.85;;;2.50;99.90;;;;;;5092648;28;20020;-59
2024/01/20 10:38:54;;;;;;;22.33;8.55;;;2.40;99.90;;;;;;5094048;28;20473;-54
2024/01/20 10:41:24;;;;;;;28.35;9.82;;;2.30;99.90;;;;;;5117549;28;20011;-54
2024/01/20 10:44:00;;;;;;;25.48;9.20;;;2.20;99.90;;;;;;5133469;28;20024;-53
2024/01/20 10:46:29;;;;;;;20.25;8.98;;;2.10;99.90;;;;;;5133453;27;20535;-55
2024/01/20 10:48:59;;;;;;;23.27;9.55;;;2.00;99.90;;;;;;5133580;27;20015;-53
2024/01/20 10:51:28;;;;;;;22.60;9.55;;;2.00;99.90;;;;;;5107122;27;20099;-65
2024/01/20 10:53:57;;;;;;;22.63;8.93;;;2.10;99.90;;;;;;5092444;28;20026;-54
2024/01/20 10:56:24;;;;;;;26.55;11.55;;;2.00;99.90;;;;;;5092354;28;20099;-53
2024/01/20 10:59:08;;;;;;;22.20;9.27;;;2.10;99.90;;;;;;5092451;28;20020;-56
2024/01/20 11:01:38;;;;;;;23.35;9.32;;;2.20;99.90;;;;;;5092609;28;20469;-55
2024/01/20 11:04:04;;;;;;;24.92;9.75;;;2.30;99.90;;;;;;5092659;28;20495;-54
2024/01/20 11:06:30;;;;;;;27.98;9.60;;;2.40;99.90;;;;;;5092332;28;20020;-53
2024/01/20 11:08:59;;;;;;;26.38;9.40;;;2.50;99.90;;;;;;5095404;28;20357;-54
2024/01/20 11:11:29;;;;;;;31.73;11.27;;;2.50;99.90;;;;;;5096006;28;20032;-52
2024/01/20 11:14:01;;;;;;;21.30;8.98;;;2.50;99.90;;;;;;5095830;28;20275;-55
2024/01/20 11:16:32;;;;;;;23.10;9.00;;;2.60;99.90;;;;;;5095953;28;20484;-52
2024/01/20 11:19:06;;;;;;;23.38;8.93;;;2.70;99.90;;;;;;5095840;28;20095;-53
2024/01/20 11:21:33;;;;;;;25.23;9.13;;;2.70;99.90;;;;;;5095917;28;20024;-55
2024/01/20 11:23:59;;;;;;;24.80;10.60;;;2.80;99.90;;;;;;5096432;28;20472;-55
2024/01/20 11:26:33;;;;;;;23.88;10.30;;;2.80;99.90;;;;;;5095797;28;20020;-60
2024/01/20 11:29:00;;;;;;;20.42;8.43;;;2.90;99.90;;;;;;5095661;28;20024;-54
2024/01/20 11:31:32;;;;;;;24.45;8.93;;;2.90;99.90;;;;;;5095697;28;20042;-61
2024/01/20 11:34:02;;;;;;;23.45;8.88;;;2.80;99.90;;;;;;5095630;28;20059;-53
2024/01/20 11:36:32;;;;;;;29.45;11.75;;;2.80;99.90;;;;;;5095489;28;20031;-54
2024/01/20 11:38:59;;;;;;;27.35;9.88;;;2.70;99.90;;;;;;5094299;28;20070;-57
2024/01/20 11:41:26;;;;;;;22.33;9.25;;;2.70;99.90;;;;;;5096996;27;20484;-55
2024/01/20 11:43:52;;;;;;;25.48;10.82;;;2.70;99.90;;;;;;5113260;28;20077;-54
2024/01/20 11:46:18;;;;;;;27.38;11.10;;;2.60;99.90;;;;;;5115815;28;20425;-55
2024/01/20 11:48:47;;;;;;;22.45;9.98;;;2.60;99.90;;;;;;5115678;28;20023;-55
2024/01/20 11:51:12;;;;;;;22.23;9.43;;;2.60;99.90;;;;;;5115853;28;20518;-56
2024/01/20 11:53:38;;;;;;;20.75;9.90;;;2.70;99.90;;;;;;5115690;28;20023;-56
2024/01/20 11:56:04;;;;;;;27.67;11.02;;;2.60;99.90;;;;;;5115594;28;20405;-53
2024/01/20 11:58:32;;;;;;;35.15;9.80;;;2.50;99.90;;;;;;5111031;28;20012;-48
2024/01/20 12:00:59;;;;;;;24.90;9.23;;;2.50;99.90;;;;;;5102422;28;20053;-50
2024/01/20 12:03:26;;;;;;;23.95;9.88;;;2.50;99.90;;;;;;5115422;28;20467;-58
2024/01/20 12:05:52;;;;;;;21.73;9.73;;;2.60;99.90;;;;;;5115501;28;20480;-55
2024/01/20 12:08:19;;;;;;;26.58;9.43;;;2.60;99.90;;;;;;5115484;28;20027;-57
2024/01/20 12:10:48;;;;;;;27.27;10.02;;;2.50;99.90;;;;;;5115237;28;20499;-57
2024/01/20 12:13:14;;;;;;;21.23;9.13;;;2.50;99.90;;;;;;5115081;28;20491;-57
2024/01/20 12:15:41;;;;;;;23.70;8.70;;;2.60;99.90;;;;;;5108739;28;20020;-58
2024/01/20 12:18:07;;;;;;;24.48;9.43;;;2.60;99.90;;;;;;5095037;28;20059;-54
2024/01/20 12:20:34;;;;;;;22.85;8.55;;;2.70;99.90;;;;;;5094675;28;20027;-56
2024/01/20 12:23:00;;;;;;;22.08;9.38;;;2.70;99.90;;;;;;5094710;28;20028;-56
2024/01/20 12:25:26;;;;;;;25.15;9.55;;;2.80;99.90;;;;;;5094706;28;20541;-58
2024/01/20 12:27:52;;;;;;;26.05;9.70;;;2.90;99.90;;;;;;5094627;28;20495;-57
2024/01/20 12:30:18;;;;;;;16.23;8.38;;;3.00;99.90;;;;;;5094418;28;20028;-55
2024/01/20 12:32:44;;;;;;;16.92;8.77;;;3.00;99.90;;;;;;5101170;28;20028;-57
2024/01/20 12:35:09;;;;;;;21.10;9.27;;;3.00;99.90;;;;;;5115102;28;20020;-57
2024/01/20 12:37:35;;;;;;;20.45;9.80;;;3.00;99.90;;;;;;5114833;28;20401;-71